Terminal Aerodrome Forecast
Issued by NWS Wilmington, NC

Home | Current Version | Previous Version | Text Only | Print | Product List | Glossary On
Versions: 1 2 3 4 5 6 7 8 9 10 11 12 13 14 15 16 17 18 19 20 21 22 23
709
FTUS42 KILM 222320
TAFLBT
TAF
KLBT 222320Z 2300/2324 19009KT P6SM FEW100
     FM230200 20004KT P6SM FEW100
      TEMPO 2308/2312 3SM BR
     FM231300 23006KT P6SM SCT030 SCT070
     FM231800 23007KT P6SM SCT045 SCT250
     FM231900 22007KT P6SM BKN050=

USA.gov is the U.S. government's official web portal to all federal, state and local government web resources and services.